Time;durP1;ratioP1;P1;durP2;ratioP2;P2;SDS_P1;SDS_P2;PMS_P1;PMS_P2;Temp;Humidity;BMP_temperature;BMP_pressure;BME280_temperature;BME280_humidity;BME280_pressure;Samples;Min_cycle;Max_cycle;Signal;HPM_P1;HPM_P2
2023/10/27 00:02:01;;;;;;;;;;;;;;;;;;2195767;59;1962;-80
2023/10/27 00:04:32;;;;;;;;;;;;;;;;;;2198725;66;2213;-80
2023/10/27 00:07:02;;;;;;;;;;;;;;;;;;2198178;58;1751;-80
2023/10/27 00:09:35;;;;;;;;;;;;;;;;;;2197663;58;1907;-80
2023/10/27 00:12:06;;;;;;;;;;;;;;;;;;2196162;58;2828;-80
2023/10/27 00:14:36;;;;;;;;;;;;;;;;;;2197276;59;1934;-80
2023/10/27 00:17:07;;;;;;;;;;;;;;;;;;2199162;58;2073;-80
2023/10/27 00:19:37;;;;;;;;;;;;;;;;;;2199933;66;2189;-80
2023/10/27 00:22:10;;;;;;;;;;;;;;;;;;2197292;59;2740;-80
2023/10/27 00:24:41;;;;;;;;;;;;;;;;;;2199309;60;2117;-80
2023/10/27 00:27:14;;;;;;;;;;;;;;;;;;2200531;59;2542;-80
2023/10/27 00:29:44;;;;;;;;;;;;;;;;;;2195927;59;2537;-80
2023/10/27 00:32:15;;;;;;;;;;;;;;;;;;2198599;58;2338;-80
2023/10/27 00:34:45;;;;;;;;;;;;;;;;;;2199928;59;2147;-80
2023/10/27 00:37:15;;;;;;;;;;;;;;;;;;2198626;58;2710;-80
2023/10/27 00:39:46;;;;;;;;;;;;;;;;;;2198521;58;2264;-80
2023/10/27 00:42:16;;;;;;;;;;;;;;;;;;2198784;59;3118;-80
2023/10/27 00:44:46;;;;;;;;;;;;;;;;;;2200212;58;2811;-80
2023/10/27 00:47:17;;;;;;;;;;;;;;;;;;2199215;59;2518;-80
2023/10/27 00:49:47;;;;;;;;;;;;;;;;;;2196158;59;1942;-80
2023/10/27 00:52:18;;;;;;;;;;;;;;;;;;2198080;59;2059;-79
2023/10/27 00:54:52;;;;;;;;;;;;;;;;;;2199205;59;1849;-80
2023/10/27 00:57:23;;;;;;;;;;;;;;;;;;2198277;58;2123;-80
2023/10/27 00:59:54;;;;;;;;;;;;;;;;;;2198668;59;2536;-80
2023/10/27 01:02:27;;;;;;;;;;;;;;;;;;2198162;59;2558;-79
2023/10/27 01:04:58;;;;;;;;;;;;;;;;;;2199445;59;2234;-80
2023/10/27 01:07:29;;;;;;;;;;;;;;;;;;2198401;58;3788;-80
2023/10/27 01:10:00;;;;;;;;;;;;;;;;;;2198291;58;1802;-80
2023/10/27 01:12:33;;;;;;;;;;;;;;;;;;2199311;59;1770;-80
2023/10/27 01:15:04;;;;;;;;;;;;;;;;;;2198966;58;2058;-80
2023/10/27 01:17:34;;;;;;;;;;;;;;;;;;2199509;66;2408;-80
2023/10/27 01:20:05;;;;;;;;;;;;;;;;;;2198165;59;2964;-79
2023/10/27 01:22:42;;;;;;;;;;;;;;;;;;2198994;59;2028;-80
2023/10/27 01:25:16;;;;;;;;;;;;;;;;;;2197902;59;1917;-80
2023/10/27 01:27:51;;;;;;;;;;;;;;;;;;2200266;58;1817;-79
2023/10/27 01:30:22;;;;;;;;;;;;;;;;;;2198110;58;2435;-80
2023/10/27 01:32:52;;;;;;;;;;;;;;;;;;2198958;59;2311;-79
2023/10/27 01:35:25;;;;;;;;;;;;;;;;;;2197825;60;2095;-80
2023/10/27 01:37:56;;;;;;;;;;;;;;;;;;2197739;59;2107;-80
2023/10/27 01:40:29;;;;;;;;;;;;;;;;;;2198793;59;2016;-80
2023/10/27 01:42:59;;;;;;;;;;;;;;;;;;2198227;59;2245;-80
2023/10/27 01:45:30;;;;;;;;;;;;;;;;;;2198199;59;1856;-80
2023/10/27 01:48:00;;;;;;;;;;;;;;;;;;2199189;59;1898;-80
2023/10/27 01:50:30;;;;;;;;;;;;;;;;;;2198054;59;3612;-80
2023/10/27 01:53:01;;;;;;;;;;;;;;;;;;2197936;59;2016;-80
2023/10/27 01:55:31;;;;;;;;;;;;;;;;;;2199213;58;1911;-80
2023/10/27 01:58:02;;;;;;;;;;;;;;;;;;2197388;66;2303;-79
2023/10/27 02:00:32;;;;;;;;;;;;;;;;;;2199582;58;3691;-80
2023/10/27 02:03:08;;;;;;;;;;;;;;;;;;2194600;60;2054;-80
2023/10/27 02:05:43;;;;;;;;;;;;;;;;;;2199600;66;1967;-80
2023/10/27 02:08:13;;;;;;;;;;;;;;;;;;2195122;59;3065;-80
2023/10/27 02:10:44;;;;;;;;;;;;;;;;;;2200072;66;2105;-80
2023/10/27 02:13:14;;;;;;;;;;;;;;;;;;2197702;58;2026;-79
2023/10/27 02:15:45;;;;;;;;;;;;;;;;;;2199684;66;3018;-79
2023/10/27 02:18:15;;;;;;;;;;;;;;;;;;2193627;59;2026;-80
2023/10/27 02:20:48;;;;;;;;;;;;;;;;;;2196966;66;1890;-80
2023/10/27 02:23:19;;;;;;;;;;;;;;;;;;2195743;66;1996;-80
2023/10/27 02:25:52;;;;;;;;;;;;;;;;;;2197320;66;1746;-80
2023/10/27 02:28:23;;;;;;;;;;;;;;;;;;2197672;58;2139;-80
2023/10/27 02:30:53;;;;;;;;;;;;;;;;;;2197977;58;3400;-80
2023/10/27 02:33:24;;;;;;;;;;;;;;;;;;2197642;59;2437;-80
2023/10/27 02:35:54;;;;;;;;;;;;;;;;;;2195919;66;2182;-79
2023/10/27 02:38:24;;;;;;;;;;;;;;;;;;2197302;59;2137;-80
2023/10/27 02:40:55;;;;;;;;;;;;;;;;;;2199497;59;2516;-80
2023/10/27 02:43:26;;;;;;;;;;;;;;;;;;2198277;59;2223;-80
2023/10/27 02:46:03;;;;;;;;;;;;;;;;;;2199065;58;2486;-80
2023/10/27 02:48:33;;;;;;;;;;;;;;;;;;2196745;66;1867;-79
2023/10/27 02:51:03;;;;;;;;;;;;;;;;;;2196418;59;1902;-79
2023/10/27 02:53:34;;;;;;;;;;;;;;;;;;2195416;66;1868;-80
2023/10/27 02:56:05;;;;;;;;;;;;;;;;;;2199413;60;1803;-79
2023/10/27 02:58:35;;;;;;;;;;;;;;;;;;2199587;66;1933;-80
2023/10/27 03:01:08;;;;;;;;;;;;;;;;;;2198037;66;1826;-80
2023/10/27 03:03:39;;;;;;;;;;;;;;;;;;2199008;66;3665;-80
2023/10/27 03:06:12;;;;;;;;;;;;;;;;;;2199106;58;2052;-80
2023/10/27 03:08:46;;;;;;;;;;;;;;;;;;2200207;66;2173;-80
2023/10/27 03:11:16;;;;;;;;;;;;;;;;;;2199611;58;2033;-80
2023/10/27 03:13:50;;;;;;;;;;;;;;;;;;2199273;59;1984;-80
2023/10/27 03:16:21;;;;;;;;;;;;;;;;;;2199105;58;2302;-79
2023/10/27 03:18:53;;;;;;;;;;;;;;;;;;2200248;58;2043;-80
2023/10/27 03:21:24;;;;;;;;;;;;;;;;;;2198767;66;1900;-80
2023/10/27 03:23:54;;;;;;;;;;;;;;;;;;2200078;66;2071;-80
2023/10/27 03:26:24;;;;;;;;;;;;;;;;;;2199041;59;2124;-80
2023/10/27 03:28:54;;;;;;;;;;;;;;;;;;2199273;59;2320;-80
2023/10/27 03:31:25;;;;;;;;;;;;;;;;;;2198102;59;1851;-80
2023/10/27 03:34:00;;;;;;;;;;;;;;;;;;2198964;58;2252;-80
2023/10/27 03:36:30;;;;;;;;;;;;;;;;;;2197940;59;2262;-80
2023/10/27 03:39:00;;;;;;;;;;;;;;;;;;2197495;60;1905;-79
2023/10/27 03:41:31;;;;;;;;;;;;;;;;;;2199122;59;1985;-80
2023/10/27 03:44:01;;;;;;;;;;;;;;;;;;2199116;59;2282;-80
2023/10/27 03:46:31;;;;;;;;;;;;;;;;;;2198372;66;2010;-81
2023/10/27 03:49:01;;;;;;;;;;;;;;;;;;2195463;59;1743;-80
2023/10/27 03:51:32;;;;;;;;;;;;;;;;;;2198587;58;2047;-80
2023/10/27 03:54:06;;;;;;;;;;;;;;;;;;2199962;66;1732;-80
2023/10/27 03:56:36;;;;;;;;;;;;;;;;;;2199020;59;1885;-80
2023/10/27 03:59:07;;;;;;;;;;;;;;;;;;2198290;66;2406;-80
2023/10/27 04:01:40;;;;;;;;;;;;;;;;;;2199200;58;1990;-80
2023/10/27 04:04:11;;;;;;;;;;;;;;;;;;2198975;59;2494;-79
2023/10/27 04:06:41;;;;;;;;;;;;;;;;;;2201984;66;1888;-80
2023/10/27 04:09:12;;;;;;;;;;;;;;;;;;2198280;58;1929;-80
2023/10/27 04:11:43;;;;;;;;;;;;;;;;;;2199557;58;1803;-80
2023/10/27 04:14:13;;;;;;;;;;;;;;;;;;2198693;64;2679;-80
2023/10/27 04:16:43;;;;;;;;;;;;;;;;;;2199803;58;2012;-80
2023/10/27 04:19:14;;;;;;;;;;;;;;;;;;2197627;59;2839;-80
2023/10/27 04:21:47;;;;;;;;;;;;;;;;;;2196964;66;1971;-80
2023/10/27 04:24:17;;;;;;;;;;;;;;;;;;2195192;58;2598;-80
2023/10/27 04:26:47;;;;;;;;;;;;;;;;;;2202117;66;1806;-80
2023/10/27 04:29:18;;;;;;;;;;;;;;;;;;2198226;59;3010;-80
2023/10/27 04:31:48;;;;;;;;;;;;;;;;;;2196295;59;2290;-80
2023/10/27 04:34:20;;;;;;;;;;;;;;;;;;2195872;66;1998;-80
2023/10/27 04:36:50;;;;;;;;;;;;;;;;;;2196592;66;2555;-81
2023/10/27 04:39:21;;;;;;;;;;;;;;;;;;2199268;59;1930;-80
2023/10/27 04:42:04;;;;;;;;;;;;;;;;;;2199689;59;2154;-80
2023/10/27 04:44:35;;;;;;;;;;;;;;;;;;2198820;58;3336;-80
2023/10/27 04:47:05;;;;;;;;;;;;;;;;;;2198767;59;2079;-80
2023/10/27 04:49:35;;;;;;;;;;;;;;;;;;2197453;59;2053;-80
2023/10/27 04:52:06;;;;;;;;;;;;;;;;;;2199104;66;1989;-80
2023/10/27 04:54:36;;;;;;;;;;;;;;;;;;2198772;58;2060;-80
2023/10/27 04:57:07;;;;;;;;;;;;;;;;;;2199598;59;1832;-80
2023/10/27 04:59:40;;;;;;;;;;;;;;;;;;2198767;63;1983;-79
2023/10/27 05:02:10;;;;;;;;;;;;;;;;;;2199915;59;2893;-80
2023/10/27 05:04:41;;;;;;;;;;;;;;;;;;2211904;59;2405;-80
2023/10/27 05:07:11;;;;;;;;;;;;;;;;;;2198845;59;1954;-80
2023/10/27 05:09:44;;;;;;;;;;;;;;;;;;2198890;59;1944;-79
2023/10/27 05:12:15;;;;;;;;;;;;;;;;;;2198601;58;2226;-80
2023/10/27 05:14:45;;;;;;;;;;;;;;;;;;2198725;66;1980;-80
2023/10/27 05:17:15;;;;;;;;;;;;;;;;;;2197654;59;2257;-80
2023/10/27 05:19:46;;;;;;;;;;;;;;;;;;2197843;59;2087;-80
2023/10/27 05:22:16;;;;;;;;;;;;;;;;;;2198136;64;2784;-80
2023/10/27 05:24:46;;;;;;;;;;;;;;;;;;2199165;66;1777;-80
2023/10/27 05:27:16;;;;;;;;;;;;;;;;;;2198229;59;1871;-80
2023/10/27 05:29:47;;;;;;;;;;;;;;;;;;2195430;59;3123;-80
2023/10/27 05:32:17;;;;;;;;;;;;;;;;;;2197686;59;2385;-80
2023/10/27 05:34:48;;;;;;;;;;;;;;;;;;2196207;59;2261;-80
2023/10/27 05:37:20;;;;;;;;;;;;;;;;;;2199077;59;1827;-79
2023/10/27 05:39:51;;;;;;;;;;;;;;;;;;2199449;58;1987;-80
2023/10/27 05:42:21;;;;;;;;;;;;;;;;;;2193649;59;1911;-79
2023/10/27 05:44:51;;;;;;;;;;;;;;;;;;2199327;58;1949;-79
2023/10/27 05:47:21;;;;;;;;;;;;;;;;;;2197845;59;1977;-80
2023/10/27 05:49:54;;;;;;;;;;;;;;;;;;2198687;59;2305;-80
2023/10/27 05:52:25;;;;;;;;;;;;;;;;;;2197397;59;1828;-80
2023/10/27 05:54:55;;;;;;;;;;;;;;;;;;2197994;66;2020;-80
2023/10/27 05:57:26;;;;;;;;;;;;;;;;;;2194313;59;2251;-80
2023/10/27 05:59:56;;;;;;;;;;;;;;;;;;2203390;66;1928;-79
2023/10/27 06:02:31;;;;;;;;;;;;;;;;;;2203872;59;2411;-80
2023/10/27 06:05:01;;;;;;;;;;;;;;;;;;2205625;59;1760;-79
2023/10/27 06:07:31;;;;;;;;;;;;;;;;;;2205480;66;1845;-80
2023/10/27 06:10:04;;;;;;;;;;;;;;;;;;2205502;66;1714;-80
2023/10/27 06:12:34;;;;;;;;;;;;;;;;;;2204744;59;2002;-80
2023/10/27 06:15:05;;;;;;;;;;;;;;;;;;2205263;59;2159;-80
2023/10/27 06:17:35;;;;;;;;;;;;;;;;;;2203980;59;2153;-80
2023/10/27 06:20:06;;;;;;;;;;;;;;;;;;2205596;58;1991;-80
2023/10/27 06:22:37;;;;;;;;;;;;;;;;;;2202886;66;2492;-79
2023/10/27 06:25:09;;;;;;;;;;;;;;;;;;2205768;59;2261;-80
2023/10/27 06:27:48;;;;;;;;;;;;;;;;;;2203822;58;1825;-80
2023/10/27 06:30:23;;;;;;;;;;;;;;;;;;2180540;59;2554;-80
2023/10/27 06:32:53;;;;;;;;;;;;;;;;;;2205720;58;1953;-80
2023/10/27 06:35:23;;;;;;;;;;;;;;;;;;2197736;66;1859;-80
2023/10/27 06:37:54;;;;;;;;;;;;;;;;;;2200020;59;1937;-80
2023/10/27 06:40:24;;;;;;;;;;;;;;;;;;2199102;59;2035;-80
2023/10/27 06:42:55;;;;;;;;;;;;;;;;;;2201040;61;1757;-80
2023/10/27 06:45:25;;;;;;;;;;;;;;;;;;2203426;59;1778;-79
2023/10/27 06:47:58;;;;;;;;;;;;;;;;;;2204806;66;2375;-80
2023/10/27 06:50:28;;;;;;;;;;;;;;;;;;2198512;59;1965;-80
2023/10/27 06:52:59;;;;;;;;;;;;;;;;;;2199809;58;1847;-80
2023/10/27 06:55:29;;;;;;;;;;;;;;;;;;2198944;59;1868;-79
2023/10/27 06:57:59;;;;;;;;;;;;;;;;;;2196862;66;2054;-79
2023/10/27 07:00:31;;;;;;;;;;;;;;;;;;2198787;59;1940;-80
2023/10/27 07:03:07;;;;;;;;;;;;;;;;;;2196250;59;2335;-80
2023/10/27 07:05:40;;;;;;;;;;;;;;;;;;2194201;66;1828;-80
2023/10/27 07:08:11;;;;;;;;;;;;;;;;;;2198822;58;1904;-80
2023/10/27 07:10:43;;;;;;;;;;;;;;;;;;2197727;58;2222;-80
2023/10/27 07:13:13;;;;;;;;;;;;;;;;;;2195259;66;3166;-79
2023/10/27 07:15:44;;;;;;;;;;;;;;;;;;2198927;66;1789;-80
2023/10/27 07:18:14;;;;;;;;;;;;;;;;;;2194955;66;2424;-80
2023/10/27 07:20:44;;;;;;;;;;;;;;;;;;2196635;59;2270;-81
2023/10/27 07:23:17;;;;;;;;;;;;;;;;;;2198129;59;1862;-81
2023/10/27 07:25:48;;;;;;;;;;;;;;;;;;2195777;66;2418;-80
2023/10/27 07:28:18;;;;;;;;;;;;;;;;;;2198772;58;1691;-80
2023/10/27 07:30:49;;;;;;;;;;;;;;;;;;2200094;66;1983;-79
2023/10/27 07:33:19;;;;;;;;;;;;;;;;;;2201594;59;2188;-78
2023/10/27 07:35:49;;;;;;;;;;;;;;;;;;2200748;58;1831;-79
2023/10/27 07:38:19;;;;;;;;;;;;;;;;;;2201771;58;2235;-80
2023/10/27 07:40:54;;;;;;;;;;;;;;;;;;2201901;59;1825;-80
2023/10/27 07:43:24;;;;;;;;;;;;;;;;;;2201888;59;1787;-80
2023/10/27 07:45:55;;;;;;;;;;;;;;;;;;2202693;66;2453;-80
2023/10/27 07:48:26;;;;;;;;;;;;;;;;;;2204251;59;1943;-80
2023/10/27 07:50:59;;;;;;;;;;;;;;;;;;2204406;59;2011;-80
2023/10/27 07:53:30;;;;;;;;;;;;;;;;;;2208880;59;1613;-79
2023/10/27 07:56:00;;;;;;;;;;;;;;;;;;2204924;66;1768;-79
2023/10/27 07:58:30;;;;;;;;;;;;;;;;;;2201163;59;2620;-79
2023/10/27 08:01:00;;;;;;;;;;;;;;;;;;2202208;66;2278;-79
2023/10/27 08:03:31;;;;;;;;;;;;;;;;;;2197168;59;2318;-78
2023/10/27 08:06:05;;;;;;;;;;;;;;;;;;2201842;59;2682;-80
2023/10/27 08:08:40;;;;;;;;;;;;;;;;;;2206804;58;2062;-80
2023/10/27 08:11:16;;;;;;;;;;;;;;;;;;2212255;58;2016;-80
2023/10/27 08:13:46;;;;;;;;;;;;;;;;;;2209151;59;1979;-80
2023/10/27 08:19:05;;;;;;;;;;;;;;;;;;2220263;54;1976;-79
2023/10/27 08:21:36;;;;;;;;;;;;;;;;;;2217575;58;2319;-79
2023/10/27 08:24:06;;;;;;;;;;;;;;;;;;2219007;58;2073;-80
2023/10/27 08:26:36;;;;;;;;;;;;;;;;;;2222619;58;1624;-80
2023/10/27 08:29:07;;;;;;;;;;;;;;;;;;2225814;58;1720;-80
2023/10/27 08:31:40;;;;;;;;;;;;;;;;;;2228264;58;2440;-80
2023/10/27 08:34:11;;;;;;;;;;;;;;;;;;2227886;58;2122;-79
2023/10/27 08:36:41;;;;;;;;;;;;;;;;;;2229487;58;2008;-79
2023/10/27 08:39:11;;;;;;;;;;;;;;;;;;2226332;59;2469;-79
2023/10/27 08:41:42;;;;;;;;;;;;;;;;;;2227197;58;1695;-79
2023/10/27 08:44:12;;;;;;;;;;;;;;;;;;2227965;58;2008;-79
2023/10/27 08:46:42;;;;;;;;;;;;;;;;;;2224864;58;2165;-79
2023/10/27 08:49:12;;;;;;;;;;;;;;;;;;2220765;58;1631;-80
2023/10/27 08:51:43;;;;;;;;;;;;;;;;;;2215242;66;1855;-80
2023/10/27 08:54:14;;;;;;;;;;;;;;;;;;2218297;58;2142;-80
2023/10/27 08:56:45;;;;;;;;;;;;;;;;;;2215811;66;2287;-80
2023/10/27 08:59:15;;;;;;;;;;;;;;;;;;2214232;58;2251;-79
2023/10/27 09:01:45;;;;;;;;;;;;;;;;;;2212335;58;2928;-79
2023/10/27 09:04:20;;;;;;;;;;;;;;;;;;2217387;58;2585;-79
2023/10/27 09:06:50;;;;;;;;;;;;;;;;;;2217100;58;1873;-80
2023/10/27 09:09:21;;;;;;;;;;;;;;;;;;2216092;66;2108;-81
2023/10/27 09:11:51;;;;;;;;;;;;;;;;;;2213971;59;2630;-80
2023/10/27 09:14:31;;;;;;;;;;;;;;;;;;2219232;58;1963;-80
2023/10/27 09:17:09;;;;;;;;;;;;;;;;;;2219477;66;1953;-81
2023/10/27 09:19:41;;;;;;;;;;;;;;;;;;2219261;59;1931;-80
2023/10/27 09:22:15;;;;;;;;;;;;;;;;;;2215289;58;1967;-80
2023/10/27 09:24:46;;;;;;;;;;;;;;;;;;2218249;58;3856;-80
2023/10/27 09:27:24;;;;;;;;;;;;;;;;;;2224744;66;1737;-80
2023/10/27 09:29:55;;;;;;;;;;;;;;;;;;2221294;58;3585;-80
2023/10/27 09:32:26;;;;;;;;;;;;;;;;;;2218148;58;2299;-80
2023/10/27 09:35:09;;;;;;;;;;;;;;;;;;2223241;58;1965;-80
2023/10/27 09:37:41;;;;;;;;;;;;;;;;;;2215815;58;2212;-80
2023/10/27 09:40:13;;;;;;;;;;;;;;;;;;2216242;58;2666;-80
2023/10/27 09:42:43;;;;;;;;;;;;;;;;;;2216391;58;2056;-80
2023/10/27 09:45:13;;;;;;;;;;;;;;;;;;2221256;58;1557;-80
2023/10/27 09:47:48;;;;;;;;;;;;;;;;;;2219180;58;1809;-80
2023/10/27 09:50:19;;;;;;;;;;;;;;;;;;2218368;59;2676;-80
2023/10/27 09:52:50;;;;;;;;;;;;;;;;;;2218328;58;1842;-80
2023/10/27 09:55:20;;;;;;;;;;;;;;;;;;2217893;59;1963;-81
2023/10/27 09:57:51;;;;;;;;;;;;;;;;;;2218528;58;2262;-80
2023/10/27 10:00:24;;;;;;;;;;;;;;;;;;2214117;66;2913;-80
2023/10/27 10:02:56;;;;;;;;;;;;;;;;;;2212532;58;2356;-80
2023/10/27 10:05:26;;;;;;;;;;;;;;;;;;2215940;58;2953;-81
2023/10/27 10:07:56;;;;;;;;;;;;;;;;;;2215470;58;1631;-80
2023/10/27 10:10:34;;;;;;;;;;;;;;;;;;2216442;58;1926;-80
2023/10/27 10:13:04;;;;;;;;;;;;;;;;;;2221381;58;2132;-80
2023/10/27 10:15:42;;;;;;;;;;;;;;;;;;2216146;58;1805;-80
2023/10/27 10:18:22;;;;;;;;;;;;;;;;;;2219890;58;1965;-80
2023/10/27 10:20:53;;;;;;;;;;;;;;;;;;2218902;59;2829;-80
2023/10/27 10:23:25;;;;;;;;;;;;;;;;;;2220453;58;2087;-80
2023/10/27 10:25:56;;;;;;;;;;;;;;;;;;2218728;58;1697;-80
2023/10/27 10:28:29;;;;;;;;;;;;;;;;;;2219521;58;1903;-80
2023/10/27 10:31:06;;;;;;;;;;;;;;;;;;2218989;66;2593;-80
2023/10/27 10:33:37;;;;;;;;;;;;;;;;;;2214354;58;2548;-80
2023/10/27 10:36:14;;;;;;;;;;;;;;;;;;2220356;58;1782;-80
2023/10/27 10:38:55;;;;;;;;;;;;;;;;;;2212751;58;2382;-80
2023/10/27 10:41:40;;;;;;;;;;;;;;;;;;2219699;58;1876;-80
2023/10/27 10:44:12;;;;;;;;;;;;;;;;;;2219489;58;1760;-80
2023/10/27 10:46:44;;;;;;;;;;;;;;;;;;2217867;58;2005;-80
2023/10/27 10:49:24;;;;;;;;;;;;;;;;;;2219453;58;1636;-80
2023/10/27 10:51:58;;;;;;;;;;;;;;;;;;2218121;58;1877;-80
2023/10/27 10:54:29;;;;;;;;;;;;;;;;;;2213539;58;1833;-80
2023/10/27 10:57:04;;;;;;;;;;;;;;;;;;2215718;59;1913;-80
2023/10/27 10:59:36;;;;;;;;;;;;;;;;;;2218082;58;1928;-80
2023/10/27 11:02:06;;;;;;;;;;;;;;;;;;2220216;58;3391;-79
2023/10/27 11:04:37;;;;;;;;;;;;;;;;;;2218873;58;1821;-80
2023/10/27 11:07:07;;;;;;;;;;;;;;;;;;2219784;58;1869;-79
2023/10/27 11:09:37;;;;;;;;;;;;;;;;;;2220639;58;1757;-80
2023/10/27 11:12:22;;;;;;;;;;;;;;;;;;2220032;59;1895;-80
2023/10/27 11:14:52;;;;;;;;;;;;;;;;;;2218963;58;1887;-80
2023/10/27 11:17:22;;;;;;;;;;;;;;;;;;2219799;58;1867;-80
2023/10/27 11:19:53;;;;;;;;;;;;;;;;;;2218508;59;1933;-80
2023/10/27 11:22:25;;;;;;;;;;;;;;;;;;2219858;58;1830;-80
2023/10/27 11:24:55;;;;;;;;;;;;;;;;;;2211814;59;1763;-80
2023/10/27 11:27:26;;;;;;;;;;;;;;;;;;2220100;58;1776;-80
2023/10/27 11:29:57;;;;;;;;;;;;;;;;;;2218252;58;2476;-80
2023/10/27 11:32:28;;;;;;;;;;;;;;;;;;2220669;58;2221;-80
2023/10/27 11:34:58;;;;;;;;;;;;;;;;;;2218340;58;1819;-80
2023/10/27 11:37:29;;;;;;;;;;;;;;;;;;2220951;58;2182;-80
2023/10/27 11:40:13;;;;;;;;;;;;;;;;;;2224549;58;1952;-80
2023/10/27 11:42:43;;;;;;;;;;;;;;;;;;2227927;58;1652;-80
2023/10/27 11:45:16;;;;;;;;;;;;;;;;;;2228731;58;1638;-80
2023/10/27 11:47:54;;;;;;;;;;;;;;;;;;2228663;66;2091;-80
2023/10/27 11:50:27;;;;;;;;;;;;;;;;;;2233436;66;2027;-80
